sensor_id;sensor_type;location;lat;lon;timestamp;temperature;humidity
10249;DHT22;5169;50.560;9.714;2023-02-18T00:00:23;9.40;99.90
10249;DHT22;5169;50.560;9.714;2023-02-18T00:02:49;9.30;99.90
10249;DHT22;5169;50.560;9.714;2023-02-18T00:05:15;9.30;99.90
10249;DHT22;5169;50.560;9.714;2023-02-18T00:07:41;9.30;99.90
10249;DHT22;5169;50.560;9.714;2023-02-18T00:10:10;9.30;99.90
10249;DHT22;5169;50.560;9.714;2023-02-18T00:12:39;9.30;99.90
10249;DHT22;5169;50.560;9.714;2023-02-18T00:15:05;9.30;99.90
10249;DHT22;5169;50.560;9.714;2023-02-18T00:17:31;9.30;99.90
10249;DHT22;5169;50.560;9.714;2023-02-18T00:19:57;9.30;99.90
10249;DHT22;5169;50.560;9.714;2023-02-18T00:22:23;9.30;99.90
10249;DHT22;5169;50.560;9.714;2023-02-18T00:24:51;9.30;99.90
10249;DHT22;5169;50.560;9.714;2023-02-18T00:27:19;9.40;99.90
10249;DHT22;5169;50.560;9.714;2023-02-18T00:29:45;9.40;99.90
10249;DHT22;5169;50.560;9.714;2023-02-18T00:32:10;9.50;99.90
10249;DHT22;5169;50.560;9.714;2023-02-18T00:34:36;9.50;99.90
10249;DHT22;5169;50.560;9.714;2023-02-18T00:37:02;9.60;99.90
10249;DHT22;5169;50.560;9.714;2023-02-18T00:39:28;9.60;99.90
10249;DHT22;5169;50.560;9.714;2023-02-18T00:41:54;9.70;99.90
10249;DHT22;5169;50.560;9.714;2023-02-18T00:44:19;9.70;99.90
10249;DHT22;5169;50.560;9.714;2023-02-18T00:46:45;9.70;99.90
10249;DHT22;5169;50.560;9.714;2023-02-18T00:49:12;9.80;99.90
10249;DHT22;5169;50.560;9.714;2023-02-18T00:51:38;9.80;99.90
10249;DHT22;5169;50.560;9.714;2023-02-18T00:54:04;9.90;99.90
10249;DHT22;5169;50.560;9.714;2023-02-18T00:56:30;9.90;99.90
10249;DHT22;5169;50.560;9.714;2023-02-18T00:58:56;9.90;99.90
10249;DHT22;5169;50.560;9.714;2023-02-18T01:01:24;9.90;99.90
10249;DHT22;5169;50.560;9.714;2023-02-18T01:03:50;9.90;99.90
10249;DHT22;5169;50.560;9.714;2023-02-18T01:06:16;9.90;99.90
10249;DHT22;5169;50.560;9.714;2023-02-18T01:08:44;10.00;99.90
10249;DHT22;5169;50.560;9.714;2023-02-18T01:11:11;9.90;99.90
10249;DHT22;5169;50.560;9.714;2023-02-18T01:13:37;9.90;99.90
10249;DHT22;5169;50.560;9.714;2023-02-18T01:16:07;9.90;99.90
10249;DHT22;5169;50.560;9.714;2023-02-18T01:18:33;9.90;99.90
10249;DHT22;5169;50.560;9.714;2023-02-18T01:20:59;9.90;99.90
10249;DHT22;5169;50.560;9.714;2023-02-18T01:23:25;9.90;99.90
10249;DHT22;5169;50.560;9.714;2023-02-18T01:25:51;9.90;99.90
10249;DHT22;5169;50.560;9.714;2023-02-18T01:28:21;9.90;99.90
10249;DHT22;5169;50.560;9.714;2023-02-18T01:30:50;9.80;99.90
10249;DHT22;5169;50.560;9.714;2023-02-18T01:33:17;9.80;99.90
10249;DHT22;5169;50.560;9.714;2023-02-18T01:35:42;9.80;99.90
10249;DHT22;5169;50.560;9.714;2023-02-18T01:38:08;9.80;99.90
10249;DHT22;5169;50.560;9.714;2023-02-18T01:40:45;9.90;99.90
10249;DHT22;5169;50.560;9.714;2023-02-18T01:43:12;9.90;99.90
10249;DHT22;5169;50.560;9.714;2023-02-18T01:48:17;9.90;99.90
10249;DHT22;5169;50.560;9.714;2023-02-18T01:50:54;9.90;99.90
10249;DHT22;5169;50.560;9.714;2023-02-18T01:53:44;9.90;99.90
10249;DHT22;5169;50.560;9.714;2023-02-18T01:56:13;9.90;99.90
10249;DHT22;5169;50.560;9.714;2023-02-18T01:58:43;9.90;99.90
10249;DHT22;5169;50.560;9.714;2023-02-18T02:01:09;9.90;99.90
10249;DHT22;5169;50.560;9.714;2023-02-18T02:03:35;9.90;99.90
10249;DHT22;5169;50.560;9.714;2023-02-18T02:06:01;9.90;99.90
10249;DHT22;5169;50.560;9.714;2023-02-18T02:08:27;9.90;99.90
10249;DHT22;5169;50.560;9.714;2023-02-18T02:25:06;9.90;99.90
10249;DHT22;5169;50.560;9.714;2023-02-18T02:30:59;9.90;99.90
10249;DHT22;5169;50.560;9.714;2023-02-18T02:36:26;9.90;99.90
10249;DHT22;5169;50.560;9.714;2023-02-18T02:42:01;10.00;99.90
10249;DHT22;5169;50.560;9.714;2023-02-18T02:50:06;10.00;99.90
10249;DHT22;5169;50.560;9.714;2023-02-18T02:52:38;10.00;99.90
10249;DHT22;5169;50.560;9.714;2023-02-18T02:55:09;10.00;99.90
10249;DHT22;5169;50.560;9.714;2023-02-18T02:57:42;10.00;99.90
10249;DHT22;5169;50.560;9.714;2023-02-18T03:00:13;10.00;99.90
10249;DHT22;5169;50.560;9.714;2023-02-18T03:03:10;10.00;99.90
10249;DHT22;5169;50.560;9.714;2023-02-18T03:11:09;10.10;99.90
10249;DHT22;5169;50.560;9.714;2023-02-18T03:19:33;10.00;99.90
10249;DHT22;5169;50.560;9.714;2023-02-18T03:24:55;10.00;99.90
10249;DHT22;5169;50.560;9.714;2023-02-18T03:27:43;10.00;99.90
10249;DHT22;5169;50.560;9.714;2023-02-18T03:31:04;10.00;99.90
10249;DHT22;5169;50.560;9.714;2023-02-18T03:33:10;10.00;99.90
10249;DHT22;5169;50.560;9.714;2023-02-18T03:35:44;10.00;99.90
10249;DHT22;5169;50.560;9.714;2023-02-18T03:38:39;10.00;99.90
10249;DHT22;5169;50.560;9.714;2023-02-18T03:41:06;10.00;99.90
10249;DHT22;5169;50.560;9.714;2023-02-18T03:43:33;10.00;99.90
10249;DHT22;5169;50.560;9.714;2023-02-18T03:45:58;10.00;99.90
10249;DHT22;5169;50.560;9.714;2023-02-18T03:48:24;10.00;99.90
10249;DHT22;5169;50.560;9.714;2023-02-18T03:50:50;10.00;99.90
10249;DHT22;5169;50.560;9.714;2023-02-18T03:53:18;10.00;99.90
10249;DHT22;5169;50.560;9.714;2023-02-18T03:55:47;10.00;99.90
10249;DHT22;5169;50.560;9.714;2023-02-18T03:58:13;10.00;99.90
10249;DHT22;5169;50.560;9.714;2023-02-18T04:00:40;10.10;99.90
10249;DHT22;5169;50.560;9.714;2023-02-18T04:03:09;10.10;99.90
10249;DHT22;5169;50.560;9.714;2023-02-18T04:05:34;10.10;99.90
10249;DHT22;5169;50.560;9.714;2023-02-18T04:08:02;10.10;99.90
10249;DHT22;5169;50.560;9.714;2023-02-18T04:10:28;10.10;99.90
10249;DHT22;5169;50.560;9.714;2023-02-18T04:12:53;10.10;99.90
10249;DHT22;5169;50.560;9.714;2023-02-18T04:15:22;10.10;99.90
10249;DHT22;5169;50.560;9.714;2023-02-18T04:17:47;10.10;99.90
10249;DHT22;5169;50.560;9.714;2023-02-18T04:20:13;10.10;99.90
10249;DHT22;5169;50.560;9.714;2023-02-18T04:22:39;10.10;99.90
10249;DHT22;5169;50.560;9.714;2023-02-18T04:25:09;10.00;99.90
10249;DHT22;5169;50.560;9.714;2023-02-18T04:27:37;10.00;99.90
10249;DHT22;5169;50.560;9.714;2023-02-18T04:30:05;10.00;99.90
10249;DHT22;5169;50.560;9.714;2023-02-18T04:32:31;10.00;99.90
10249;DHT22;5169;50.560;9.714;2023-02-18T04:34:57;10.00;99.90
10249;DHT22;5169;50.560;9.714;2023-02-18T04:37:25;10.00;99.90
10249;DHT22;5169;50.560;9.714;2023-02-18T04:39:50;10.00;99.90
10249;DHT22;5169;50.560;9.714;2023-02-18T04:42:18;10.00;99.90
10249;DHT22;5169;50.560;9.714;2023-02-18T04:44:44;10.00;99.90
10249;DHT22;5169;50.560;9.714;2023-02-18T04:47:10;10.00;99.90
10249;DHT22;5169;50.560;9.714;2023-02-18T04:49:35;9.90;99.90
10249;DHT22;5169;50.560;9.714;2023-02-18T04:52:04;9.90;99.90
10249;DHT22;5169;50.560;9.714;2023-02-18T04:54:32;9.90;99.90
10249;DHT22;5169;50.560;9.714;2023-02-18T04:57:00;9.90;99.90
10249;DHT22;5169;50.560;9.714;2023-02-18T04:59:26;9.80;99.90
10249;DHT22;5169;50.560;9.714;2023-02-18T05:01:51;9.80;99.90
10249;DHT22;5169;50.560;9.714;2023-02-18T05:04:19;9.80;99.90
10249;DHT22;5169;50.560;9.714;2023-02-18T05:06:45;9.70;99.90
10249;DHT22;5169;50.560;9.714;2023-02-18T05:09:11;9.80;99.90
10249;DHT22;5169;50.560;9.714;2023-02-18T05:11:36;9.70;99.90
10249;DHT22;5169;50.560;9.714;2023-02-18T05:14:04;9.70;99.90
10249;DHT22;5169;50.560;9.714;2023-02-18T05:16:30;9.70;99.90
10249;DHT22;5169;50.560;9.714;2023-02-18T05:19:01;9.70;99.90
10249;DHT22;5169;50.560;9.714;2023-02-18T05:21:27;9.70;99.90
10249;DHT22;5169;50.560;9.714;2023-02-18T05:23:52;9.80;99.90
10249;DHT22;5169;50.560;9.714;2023-02-18T05:26:18;9.80;99.90
10249;DHT22;5169;50.560;9.714;2023-02-18T05:28:44;9.70;99.90
10249;DHT22;5169;50.560;9.714;2023-02-18T05:31:12;9.80;99.90
10249;DHT22;5169;50.560;9.714;2023-02-18T05:33:40;9.80;99.90
10249;DHT22;5169;50.560;9.714;2023-02-18T05:36:08;9.80;99.90
10249;DHT22;5169;50.560;9.714;2023-02-18T05:38:34;9.70;99.90
10249;DHT22;5169;50.560;9.714;2023-02-18T05:41:01;9.70;99.90
10249;DHT22;5169;50.560;9.714;2023-02-18T05:43:30;9.70;99.90
10249;DHT22;5169;50.560;9.714;2023-02-18T05:45:55;9.70;99.90
10249;DHT22;5169;50.560;9.714;2023-02-18T05:48:21;9.70;99.90
10249;DHT22;5169;50.560;9.714;2023-02-18T05:50:49;9.70;99.90
10249;DHT22;5169;50.560;9.714;2023-02-18T05:53:18;9.70;99.90
10249;DHT22;5169;50.560;9.714;2023-02-18T05:55:46;9.70;99.90
10249;DHT22;5169;50.560;9.714;2023-02-18T05:58:11;9.70;99.90
10249;DHT22;5169;50.560;9.714;2023-02-18T06:00:40;9.70;99.90
10249;DHT22;5169;50.560;9.714;2023-02-18T06:03:06;9.70;99.90
10249;DHT22;5169;50.560;9.714;2023-02-18T06:05:31;9.70;99.90
10249;DHT22;5169;50.560;9.714;2023-02-18T06:07:57;9.70;99.90
10249;DHT22;5169;50.560;9.714;2023-02-18T06:10:23;9.80;99.90
10249;DHT22;5169;50.560;9.714;2023-02-18T06:12:48;9.80;99.90
10249;DHT22;5169;50.560;9.714;2023-02-18T06:15:14;9.70;99.90
10249;DHT22;5169;50.560;9.714;2023-02-18T06:17:40;9.70;99.90
10249;DHT22;5169;50.560;9.714;2023-02-18T06:20:08;9.70;99.90
10249;DHT22;5169;50.560;9.714;2023-02-18T06:22:36;9.70;99.90
10249;DHT22;5169;50.560;9.714;2023-02-18T06:25:04;9.70;99.90
10249;DHT22;5169;50.560;9.714;2023-02-18T06:27:30;9.70;99.90
10249;DHT22;5169;50.560;9.714;2023-02-18T06:29:56;9.70;99.90
10249;DHT22;5169;50.560;9.714;2023-02-18T06:32:24;9.70;99.90
10249;DHT22;5169;50.560;9.714;2023-02-18T06:34:52;9.70;99.90
10249;DHT22;5169;50.560;9.714;2023-02-18T06:37:20;9.70;99.90
10249;DHT22;5169;50.560;9.714;2023-02-18T06:39:46;9.60;99.90
10249;DHT22;5169;50.560;9.714;2023-02-18T06:42:16;9.60;99.90
10249;DHT22;5169;50.560;9.714;2023-02-18T06:44:44;9.60;99.90
10249;DHT22;5169;50.560;9.714;2023-02-18T06:47:09;9.60;99.90
10249;DHT22;5169;50.560;9.714;2023-02-18T06:49:40;9.60;99.90
10249;DHT22;5169;50.560;9.714;2023-02-18T06:52:08;9.60;99.90
10249;DHT22;5169;50.560;9.714;2023-02-18T06:54:33;9.60;99.90
10249;DHT22;5169;50.560;9.714;2023-02-18T06:57:02;9.70;99.90
10249;DHT22;5169;50.560;9.714;2023-02-18T06:59:30;9.70;99.90
10249;DHT22;5169;50.560;9.714;2023-02-18T07:01:55;9.70;99.90
10249;DHT22;5169;50.560;9.714;2023-02-18T07:04:21;9.70;99.90
10249;DHT22;5169;50.560;9.714;2023-02-18T07:06:51;9.70;99.90
10249;DHT22;5169;50.560;9.714;2023-02-18T07:09:19;9.70;99.90
10249;DHT22;5169;50.560;9.714;2023-02-18T07:11:45;9.70;99.90
10249;DHT22;5169;50.560;9.714;2023-02-18T07:14:10;9.70;99.90
10249;DHT22;5169;50.560;9.714;2023-02-18T07:16:36;9.70;99.90
10249;DHT22;5169;50.560;9.714;2023-02-18T07:19:06;9.80;99.90
10249;DHT22;5169;50.560;9.714;2023-02-18T07:21:34;9.90;99.90
10249;DHT22;5169;50.560;9.714;2023-02-18T07:24:00;9.90;99.90
10249;DHT22;5169;50.560;9.714;2023-02-18T07:26:26;9.90;99.90
10249;DHT22;5169;50.560;9.714;2023-02-18T07:28:51;9.90;99.90
10249;DHT22;5169;50.560;9.714;2023-02-18T07:31:17;9.90;99.90
10249;DHT22;5169;50.560;9.714;2023-02-18T07:33:43;9.90;99.90
10249;DHT22;5169;50.560;9.714;2023-02-18T07:36:11;10.00;99.90
10249;DHT22;5169;50.560;9.714;2023-02-18T07:38:41;10.00;99.90
10249;DHT22;5169;50.560;9.714;2023-02-18T07:41:16;10.00;99.90
10249;DHT22;5169;50.560;9.714;2023-02-18T07:43:45;10.00;99.90
10249;DHT22;5169;50.560;9.714;2023-02-18T07:46:13;10.00;99.90
10249;DHT22;5169;50.560;9.714;2023-02-18T07:48:41;10.00;99.90
10249;DHT22;5169;50.560;9.714;2023-02-18T07:51:08;10.00;99.90
10249;DHT22;5169;50.560;9.714;2023-02-18T07:53:35;10.00;99.90
10249;DHT22;5169;50.560;9.714;2023-02-18T07:56:04;9.90;99.90
10249;DHT22;5169;50.560;9.714;2023-02-18T07:58:35;9.90;99.90
10249;DHT22;5169;50.560;9.714;2023-02-18T08:01:09;9.90;99.90
10249;DHT22;5169;50.560;9.714;2023-02-18T08:03:39;9.80;99.90
10249;DHT22;5169;50.560;9.714;2023-02-18T08:06:05;9.80;99.90
10249;DHT22;5169;50.560;9.714;2023-02-18T08:08:35;9.80;99.90
10249;DHT22;5169;50.560;9.714;2023-02-18T08:11:01;9.70;99.90
10249;DHT22;5169;50.560;9.714;2023-02-18T08:13:28;9.70;99.90
10249;DHT22;5169;50.560;9.714;2023-02-18T08:15:55;9.60;99.90
10249;DHT22;5169;50.560;9.714;2023-02-18T08:18:23;9.70;99.90
10249;DHT22;5169;50.560;9.714;2023-02-18T08:20:51;9.60;99.90
10249;DHT22;5169;50.560;9.714;2023-02-18T08:23:21;9.60;99.90
10249;DHT22;5169;50.560;9.714;2023-02-18T08:25:48;9.50;99.90
10249;DHT22;5169;50.560;9.714;2023-02-18T08:28:15;9.50;99.90
10249;DHT22;5169;50.560;9.714;2023-02-18T08:30:47;9.50;99.90
10249;DHT22;5169;50.560;9.714;2023-02-18T08:33:14;9.50;99.90
10249;DHT22;5169;50.560;9.714;2023-02-18T08:35:43;9.50;99.90
10249;DHT22;5169;50.560;9.714;2023-02-18T08:38:11;9.50;99.90
10249;DHT22;5169;50.560;9.714;2023-02-18T08:40:37;9.50;99.90
10249;DHT22;5169;50.560;9.714;2023-02-18T08:43:07;9.40;99.90
10249;DHT22;5169;50.560;9.714;2023-02-18T08:45:32;9.40;99.90
10249;DHT22;5169;50.560;9.714;2023-02-18T08:48:04;9.40;99.90
10249;DHT22;5169;50.560;9.714;2023-02-18T08:50:33;9.30;99.90
10249;DHT22;5169;50.560;9.714;2023-02-18T08:52:59;9.30;99.90
10249;DHT22;5169;50.560;9.714;2023-02-18T08:55:32;9.30;99.90
10249;DHT22;5169;50.560;9.714;2023-02-18T08:57:58;9.20;99.90
10249;DHT22;5169;50.560;9.714;2023-02-18T09:00:26;9.20;99.90
10249;DHT22;5169;50.560;9.714;2023-02-18T09:02:55;9.20;99.90
10249;DHT22;5169;50.560;9.714;2023-02-18T09:05:23;9.20;99.90
10249;DHT22;5169;50.560;9.714;2023-02-18T09:07:51;9.20;99.90
10249;DHT22;5169;50.560;9.714;2023-02-18T09:10:16;9.20;99.90
10249;DHT22;5169;50.560;9.714;2023-02-18T09:12:42;9.10;99.90
10249;DHT22;5169;50.560;9.714;2023-02-18T09:15:08;9.20;99.90
10249;DHT22;5169;50.560;9.714;2023-02-18T09:17:34;9.10;99.90
10249;DHT22;5169;50.560;9.714;2023-02-18T09:20:00;9.20;99.90
10249;DHT22;5169;50.560;9.714;2023-02-18T09:22:25;9.20;99.90
10249;DHT22;5169;50.560;9.714;2023-02-18T09:24:53;9.10;99.90
10249;DHT22;5169;50.560;9.714;2023-02-18T09:27:20;9.20;99.90
10249;DHT22;5169;50.560;9.714;2023-02-18T09:29:45;9.30;99.90
10249;DHT22;5169;50.560;9.714;2023-02-18T09:32:11;9.40;99.90
10249;DHT22;5169;50.560;9.714;2023-02-18T09:34:39;9.40;99.90
10249;DHT22;5169;50.560;9.714;2023-02-18T09:37:04;9.40;99.90
10249;DHT22;5169;50.560;9.714;2023-02-18T09:39:32;9.40;99.90
10249;DHT22;5169;50.560;9.714;2023-02-18T09:42:04;9.40;99.90
10249;DHT22;5169;50.560;9.714;2023-02-18T09:44:38;9.40;99.90
10249;DHT22;5169;50.560;9.714;2023-02-18T09:49:56;9.40;99.90
10249;DHT22;5169;50.560;9.714;2023-02-18T09:52:28;9.40;99.90
10249;DHT22;5169;50.560;9.714;2023-02-18T09:54:55;9.40;99.90
10249;DHT22;5169;50.560;9.714;2023-02-18T09:59:59;9.40;99.90
10249;DHT22;5169;50.560;9.714;2023-02-18T10:02:26;9.50;99.90
10249;DHT22;5169;50.560;9.714;2023-02-18T10:04:53;9.50;99.90
10249;DHT22;5169;50.560;9.714;2023-02-18T10:07:34;9.50;99.90
10249;DHT22;5169;50.560;9.714;2023-02-18T10:10:31;9.50;99.90
10249;DHT22;5169;50.560;9.714;2023-02-18T10:13:00;9.50;99.90
10249;DHT22;5169;50.560;9.714;2023-02-18T10:15:29;9.50;99.90
10249;DHT22;5169;50.560;9.714;2023-02-18T10:17:59;9.40;99.90
10249;DHT22;5169;50.560;9.714;2023-02-18T10:20:29;9.50;99.90
10249;DHT22;5169;50.560;9.714;2023-02-18T10:22:58;9.60;99.90
10249;DHT22;5169;50.560;9.714;2023-02-18T10:25:25;9.70;99.90
10249;DHT22;5169;50.560;9.714;2023-02-18T10:27:54;9.70;99.90
10249;DHT22;5169;50.560;9.714;2023-02-18T10:30:41;9.70;99.90
10249;DHT22;5169;50.560;9.714;2023-02-18T10:35:53;9.70;99.90
10249;DHT22;5169;50.560;9.714;2023-02-18T10:41:17;9.80;99.90
10249;DHT22;5169;50.560;9.714;2023-02-18T10:50:09;9.70;99.90
10249;DHT22;5169;50.560;9.714;2023-02-18T10:52:46;9.60;99.90
10249;DHT22;5169;50.560;9.714;2023-02-18T10:55:16;9.60;99.90
10249;DHT22;5169;50.560;9.714;2023-02-18T10:57:53;9.50;99.90
10249;DHT22;5169;50.560;9.714;2023-02-18T11:03:08;9.60;99.90
10249;DHT22;5169;50.560;9.714;2023-02-18T11:05:37;9.60;99.90
10249;DHT22;5169;50.560;9.714;2023-02-18T11:08:10;9.60;99.90
10249;DHT22;5169;50.560;9.714;2023-02-18T11:10:41;9.70;99.90
10249;DHT22;5169;50.560;9.714;2023-02-18T11:13:11;9.70;99.90
10249;DHT22;5169;50.560;9.714;2023-02-18T11:18:39;9.80;99.90
10249;DHT22;5169;50.560;9.714;2023-02-18T11:24:04;9.90;99.90
10249;DHT22;5169;50.560;9.714;2023-02-18T11:26:33;9.90;99.90
10249;DHT22;5169;50.560;9.714;2023-02-18T11:29:03;9.90;99.90
10249;DHT22;5169;50.560;9.714;2023-02-18T11:31:41;9.90;99.90
10249;DHT22;5169;50.560;9.714;2023-02-18T11:34:25;9.90;99.90
10249;DHT22;5169;50.560;9.714;2023-02-18T11:36:52;10.00;99.90
10249;DHT22;5169;50.560;9.714;2023-02-18T11:39:25;10.00;99.90
10249;DHT22;5169;50.560;9.714;2023-02-18T11:42:00;10.00;99.90
10249;DHT22;5169;50.560;9.714;2023-02-18T11:44:30;10.00;99.90
10249;DHT22;5169;50.560;9.714;2023-02-18T11:46:57;10.00;99.90
10249;DHT22;5169;50.560;9.714;2023-02-18T11:49:24;10.00;99.90
10249;DHT22;5169;50.560;9.714;2023-02-18T11:51:51;10.00;99.90
10249;DHT22;5169;50.560;9.714;2023-02-18T11:54:30;9.90;99.90
10249;DHT22;5169;50.560;9.714;2023-02-18T11:56:59;9.80;99.90
10249;DHT22;5169;50.560;9.714;2023-02-18T11:59:28;9.90;99.90
10249;DHT22;5169;50.560;9.714;2023-02-18T12:02:18;9.90;99.90
10249;DHT22;5169;50.560;9.714;2023-02-18T12:05:17;9.90;99.90
10249;DHT22;5169;50.560;9.714;2023-02-18T12:07:58;10.00;99.90
10249;DHT22;5169;50.560;9.714;2023-02-18T12:10:30;10.20;99.90
10249;DHT22;5169;50.560;9.714;2023-02-18T12:38:51;9.80;99.90
10249;DHT22;5169;50.560;9.714;2023-02-18T12:44:35;9.60;99.90
10249;DHT22;5169;50.560;9.714;2023-02-18T13:12:45;9.80;99.90
10249;DHT22;5169;50.560;9.714;2023-02-18T13:15:42;10.00;99.90
10249;DHT22;5169;50.560;9.714;2023-02-18T13:18:22;9.80;99.90
10249;DHT22;5169;50.560;9.714;2023-02-18T13:20:55;9.70;99.90
10249;DHT22;5169;50.560;9.714;2023-02-18T13:23:25;9.60;99.90
10249;DHT22;5169;50.560;9.714;2023-02-18T13:25:56;9.70;99.90
10249;DHT22;5169;50.560;9.714;2023-02-18T13:29:04;9.70;99.90
10249;DHT22;5169;50.560;9.714;2023-02-18T13:37:32;9.80;99.90
10249;DHT22;5169;50.560;9.714;2023-02-18T13:40:00;9.80;99.90
10249;DHT22;5169;50.560;9.714;2023-02-18T13:47:44;9.70;99.90
10249;DHT22;5169;50.560;9.714;2023-02-18T13:53:12;9.70;99.90
10249;DHT22;5169;50.560;9.714;2023-02-18T14:01:14;9.60;99.90
10249;DHT22;5169;50.560;9.714;2023-02-18T14:06:14;9.60;99.90
10249;DHT22;5169;50.560;9.714;2023-02-18T14:08:42;9.60;99.90
10249;DHT22;5169;50.560;9.714;2023-02-18T14:19:42;9.40;99.90
10249;DHT22;5169;50.560;9.714;2023-02-18T14:27:35;9.40;99.90
10249;DHT22;5169;50.560;9.714;2023-02-18T14:30:07;9.40;99.90
10249;DHT22;5169;50.560;9.714;2023-02-18T14:32:39;9.40;99.90
10249;DHT22;5169;50.560;9.714;2023-02-18T14:37:42;9.50;99.90
10249;DHT22;5169;50.560;9.714;2023-02-18T14:50:50;9.40;99.90
10249;DHT22;5169;50.560;9.714;2023-02-18T14:53:20;9.40;99.90
10249;DHT22;5169;50.560;9.714;2023-02-18T14:55:50;9.40;99.90
10249;DHT22;5169;50.560;9.714;2023-02-18T14:58:38;9.40;99.90
10249;DHT22;5169;50.560;9.714;2023-02-18T15:01:30;9.40;99.90
10249;DHT22;5169;50.560;9.714;2023-02-18T15:03:56;9.40;99.90
10249;DHT22;5169;50.560;9.714;2023-02-18T15:08:55;9.40;99.90
10249;DHT22;5169;50.560;9.714;2023-02-18T15:11:33;9.40;99.90
10249;DHT22;5169;50.560;9.714;2023-02-18T15:13:59;9.40;99.90
10249;DHT22;5169;50.560;9.714;2023-02-18T15:16:33;9.30;99.90
10249;DHT22;5169;50.560;9.714;2023-02-18T15:19:03;9.40;99.90
10249;DHT22;5169;50.560;9.714;2023-02-18T15:24:04;9.40;99.90
10249;DHT22;5169;50.560;9.714;2023-02-18T15:26:30;9.40;99.90
10249;DHT22;5169;50.560;9.714;2023-02-18T15:29:01;9.40;99.90
10249;DHT22;5169;50.560;9.714;2023-02-18T15:31:36;9.40;99.90
10249;DHT22;5169;50.560;9.714;2023-02-18T15:34:41;9.30;99.90
10249;DHT22;5169;50.560;9.714;2023-02-18T15:37:03;9.30;99.90
10249;DHT22;5169;50.560;9.714;2023-02-18T15:39:30;9.40;99.90
10249;DHT22;5169;50.560;9.714;2023-02-18T15:42:06;9.40;99.90
10249;DHT22;5169;50.560;9.714;2023-02-18T15:44:34;9.50;99.90
10249;DHT22;5169;50.560;9.714;2023-02-18T15:47:08;9.50;99.90
10249;DHT22;5169;50.560;9.714;2023-02-18T15:49:36;9.40;99.90
10249;DHT22;5169;50.560;9.714;2023-02-18T15:52:05;9.40;99.90
10249;DHT22;5169;50.560;9.714;2023-02-18T15:54:33;9.40;99.90
10249;DHT22;5169;50.560;9.714;2023-02-18T15:57:02;9.40;99.90
10249;DHT22;5169;50.560;9.714;2023-02-18T15:59:31;9.50;99.90
10249;DHT22;5169;50.560;9.714;2023-02-18T16:02:19;9.40;99.90
10249;DHT22;5169;50.560;9.714;2023-02-18T16:04:51;9.40;99.90
10249;DHT22;5169;50.560;9.714;2023-02-18T16:09:49;9.40;99.90
10249;DHT22;5169;50.560;9.714;2023-02-18T16:12:29;9.40;99.90
10249;DHT22;5169;50.560;9.714;2023-02-18T16:14:59;9.40;99.90
10249;DHT22;5169;50.560;9.714;2023-02-18T16:17:27;9.40;99.90
10249;DHT22;5169;50.560;9.714;2023-02-18T16:19:58;9.40;99.90
10249;DHT22;5169;50.560;9.714;2023-02-18T16:25:21;9.40;99.90
10249;DHT22;5169;50.560;9.714;2023-02-18T16:27:53;9.40;99.90
10249;DHT22;5169;50.560;9.714;2023-02-18T16:30:27;9.30;99.90
10249;DHT22;5169;50.560;9.714;2023-02-18T16:32:55;9.30;99.90
10249;DHT22;5169;50.560;9.714;2023-02-18T16:35:23;9.30;99.90
10249;DHT22;5169;50.560;9.714;2023-02-18T16:37:52;9.30;99.90
10249;DHT22;5169;50.560;9.714;2023-02-18T16:40:36;9.20;99.90
10249;DHT22;5169;50.560;9.714;2023-02-18T16:43:15;9.30;99.90
10249;DHT22;5169;50.560;9.714;2023-02-18T16:45:43;9.30;99.90
10249;DHT22;5169;50.560;9.714;2023-02-18T16:50:55;9.30;99.90
10249;DHT22;5169;50.560;9.714;2023-02-18T16:53:21;9.30;99.90
10249;DHT22;5169;50.560;9.714;2023-02-18T16:55:49;9.30;99.90
10249;DHT22;5169;50.560;9.714;2023-02-18T16:58:15;9.30;99.90
10249;DHT22;5169;50.560;9.714;2023-02-18T17:00:42;9.30;99.90
10249;DHT22;5169;50.560;9.714;2023-02-18T17:03:09;9.30;99.90
10249;DHT22;5169;50.560;9.714;2023-02-18T17:05:37;9.30;99.90
10249;DHT22;5169;50.560;9.714;2023-02-18T17:08:24;9.30;99.90
10249;DHT22;5169;50.560;9.714;2023-02-18T17:10:53;9.30;99.90
10249;DHT22;5169;50.560;9.714;2023-02-18T17:13:22;9.30;99.90
10249;DHT22;5169;50.560;9.714;2023-02-18T17:15:51;9.30;99.90
10249;DHT22;5169;50.560;9.714;2023-02-18T17:18:22;9.30;99.90
10249;DHT22;5169;50.560;9.714;2023-02-18T17:20:52;9.30;99.90
10249;DHT22;5169;50.560;9.714;2023-02-18T17:23:22;9.20;99.90
10249;DHT22;5169;50.560;9.714;2023-02-18T17:25:49;9.20;99.90
10249;DHT22;5169;50.560;9.714;2023-02-18T17:28:15;9.20;99.90
10249;DHT22;5169;50.560;9.714;2023-02-18T17:30:48;9.30;99.90
10249;DHT22;5169;50.560;9.714;2023-02-18T17:33:17;9.30;99.90
10249;DHT22;5169;50.560;9.714;2023-02-18T17:35:47;9.30;99.90
10249;DHT22;5169;50.560;9.714;2023-02-18T17:38:15;9.30;99.90
10249;DHT22;5169;50.560;9.714;2023-02-18T17:40:47;9.40;99.90
10249;DHT22;5169;50.560;9.714;2023-02-18T17:43:15;9.40;99.90
10249;DHT22;5169;50.560;9.714;2023-02-18T17:45:51;9.40;99.90
10249;DHT22;5169;50.560;9.714;2023-02-18T17:48:17;9.40;99.90
10249;DHT22;5169;50.560;9.714;2023-02-18T17:50:42;9.40;99.90
10249;DHT22;5169;50.560;9.714;2023-02-18T17:53:15;9.40;99.90
10249;DHT22;5169;50.560;9.714;2023-02-18T17:55:42;9.40;99.90
10249;DHT22;5169;50.560;9.714;2023-02-18T17:58:09;9.30;99.90
10249;DHT22;5169;50.560;9.714;2023-02-18T18:00:41;9.30;99.90
10249;DHT22;5169;50.560;9.714;2023-02-18T18:03:09;9.30;99.90
10249;DHT22;5169;50.560;9.714;2023-02-18T18:05:39;9.40;99.90
10249;DHT22;5169;50.560;9.714;2023-02-18T18:08:07;9.40;99.90
10249;DHT22;5169;50.560;9.714;2023-02-18T18:10:36;9.40;99.90
10249;DHT22;5169;50.560;9.714;2023-02-18T18:13:05;9.40;99.90
10249;DHT22;5169;50.560;9.714;2023-02-18T18:15:42;9.40;99.90
10249;DHT22;5169;50.560;9.714;2023-02-18T18:18:10;9.40;99.90
10249;DHT22;5169;50.560;9.714;2023-02-18T18:20:37;9.40;99.90
10249;DHT22;5169;50.560;9.714;2023-02-18T18:23:07;9.30;99.90
10249;DHT22;5169;50.560;9.714;2023-02-18T18:25:37;9.40;99.90
10249;DHT22;5169;50.560;9.714;2023-02-18T18:28:08;9.30;99.90
10249;DHT22;5169;50.560;9.714;2023-02-18T18:30:36;9.30;99.90
10249;DHT22;5169;50.560;9.714;2023-02-18T18:33:05;9.30;99.90
10249;DHT22;5169;50.560;9.714;2023-02-18T18:35:36;9.20;99.90
10249;DHT22;5169;50.560;9.714;2023-02-18T18:38:03;9.20;99.90
10249;DHT22;5169;50.560;9.714;2023-02-18T18:40:32;9.20;99.90
10249;DHT22;5169;50.560;9.714;2023-02-18T18:43:01;9.20;99.90
10249;DHT22;5169;50.560;9.714;2023-02-18T18:45:29;9.20;99.90
10249;DHT22;5169;50.560;9.714;2023-02-18T18:47:58;9.20;99.90
10249;DHT22;5169;50.560;9.714;2023-02-18T18:50:27;9.20;99.90
10249;DHT22;5169;50.560;9.714;2023-02-18T18:52:55;9.20;99.90
10249;DHT22;5169;50.560;9.714;2023-02-18T18:57:50;9.20;99.90
10249;DHT22;5169;50.560;9.714;2023-02-18T19:00:17;9.20;99.90
10249;DHT22;5169;50.560;9.714;2023-02-18T19:02:45;9.20;99.90
10249;DHT22;5169;50.560;9.714;2023-02-18T19:05:24;9.20;99.90
10249;DHT22;5169;50.560;9.714;2023-02-18T19:07:50;9.10;99.90
10249;DHT22;5169;50.560;9.714;2023-02-18T19:10:16;9.10;99.90
10249;DHT22;5169;50.560;9.714;2023-02-18T19:12:43;9.10;99.90
10249;DHT22;5169;50.560;9.714;2023-02-18T19:15:14;9.10;99.90
10249;DHT22;5169;50.560;9.714;2023-02-18T19:17:53;9.10;99.90
10249;DHT22;5169;50.560;9.714;2023-02-18T19:20:22;9.10;99.90
10249;DHT22;5169;50.560;9.714;2023-02-18T19:30:04;9.10;99.90
10249;DHT22;5169;50.560;9.714;2023-02-18T19:32:31;9.10;99.90